sensor_id;sensor_type;location;lat;lon;timestamp;P1;durP1;ratioP1;P2;durP2;ratioP2
50495;SDS011;38806;51.554;5.704;2023-07-20T00:00:05;11.13;;;7.53;;
50495;SDS011;38806;51.554;5.704;2023-07-20T00:02:06;9.88;;;6.20;;
50495;SDS011;38806;51.554;5.704;2023-07-20T00:04:08;10.30;;;6.13;;
50495;SDS011;38806;51.554;5.704;2023-07-20T00:06:08;10.30;;;7.20;;
50495;SDS011;38806;51.554;5.704;2023-07-20T00:08:08;15.25;;;7.38;;
50495;SDS011;38806;51.554;5.704;2023-07-20T00:10:08;15.10;;;6.95;;
50495;SDS011;38806;51.554;5.704;2023-07-20T00:12:09;10.52;;;6.97;;
50495;SDS011;38806;51.554;5.704;2023-07-20T00:14:09;9.23;;;6.47;;
50495;SDS011;38806;51.554;5.704;2023-07-20T00:16:09;19.27;;;6.63;;
50495;SDS011;38806;51.554;5.704;2023-07-20T00:18:09;9.30;;;5.80;;
50495;SDS011;38806;51.554;5.704;2023-07-20T00:20:10;10.18;;;6.10;;
50495;SDS011;38806;51.554;5.704;2023-07-20T00:22:11;10.75;;;6.63;;
50495;SDS011;38806;51.554;5.704;2023-07-20T00:24:13;14.93;;;6.60;;
50495;SDS011;38806;51.554;5.704;2023-07-20T00:26:13;12.85;;;6.10;;
50495;SDS011;38806;51.554;5.704;2023-07-20T00:28:13;11.40;;;5.78;;
50495;SDS011;38806;51.554;5.704;2023-07-20T00:30:13;14.00;;;5.75;;
50495;SDS011;38806;51.554;5.704;2023-07-20T00:32:14;11.60;;;7.18;;
50495;SDS011;38806;51.554;5.704;2023-07-20T00:34:14;7.90;;;4.97;;
50495;SDS011;38806;51.554;5.704;2023-07-20T00:36:14;13.68;;;6.82;;
50495;SDS011;38806;51.554;5.704;2023-07-20T00:38:14;13.93;;;7.40;;
50495;SDS011;38806;51.554;5.704;2023-07-20T00:40:15;11.57;;;6.40;;
50495;SDS011;38806;51.554;5.704;2023-07-20T00:42:15;16.00;;;8.30;;
50495;SDS011;38806;51.554;5.704;2023-07-20T00:44:15;12.90;;;6.93;;
50495;SDS011;38806;51.554;5.704;2023-07-20T00:46:15;12.18;;;6.50;;
50495;SDS011;38806;51.554;5.704;2023-07-20T00:48:15;13.05;;;7.45;;
50495;SDS011;38806;51.554;5.704;2023-07-20T00:50:16;8.65;;;6.60;;
50495;SDS011;38806;51.554;5.704;2023-07-20T00:52:16;18.88;;;8.68;;
50495;SDS011;38806;51.554;5.704;2023-07-20T00:54:18;10.35;;;7.18;;
50495;SDS011;38806;51.554;5.704;2023-07-20T00:56:19;13.00;;;7.78;;
50495;SDS011;38806;51.554;5.704;2023-07-20T00:58:19;12.60;;;7.72;;
50495;SDS011;38806;51.554;5.704;2023-07-20T01:00:19;19.08;;;8.45;;
50495;SDS011;38806;51.554;5.704;2023-07-20T01:02:20;15.93;;;8.75;;
50495;SDS011;38806;51.554;5.704;2023-07-20T01:04:20;16.33;;;9.73;;
50495;SDS011;38806;51.554;5.704;2023-07-20T01:06:25;15.70;;;8.45;;
50495;SDS011;38806;51.554;5.704;2023-07-20T01:08:33;15.73;;;9.20;;
50495;SDS011;38806;51.554;5.704;2023-07-20T01:10:40;16.33;;;8.90;;
50495;SDS011;38806;51.554;5.704;2023-07-20T01:12:42;16.63;;;7.85;;
50495;SDS011;38806;51.554;5.704;2023-07-20T01:14:42;16.27;;;8.68;;
50495;SDS011;38806;51.554;5.704;2023-07-20T01:16:43;19.63;;;10.10;;
50495;SDS011;38806;51.554;5.704;2023-07-20T01:18:44;15.25;;;7.85;;
50495;SDS011;38806;51.554;5.704;2023-07-20T01:20:44;17.73;;;9.85;;
50495;SDS011;38806;51.554;5.704;2023-07-20T01:29:11;16.05;;;8.90;;
50495;SDS011;38806;51.554;5.704;2023-07-20T01:33:15;15.43;;;9.48;;
50495;SDS011;38806;51.554;5.704;2023-07-20T01:35:16;17.20;;;9.25;;
50495;SDS011;38806;51.554;5.704;2023-07-20T01:37:18;16.60;;;10.63;;
50495;SDS011;38806;51.554;5.704;2023-07-20T01:39:20;18.80;;;9.45;;
50495;SDS011;38806;51.554;5.704;2023-07-20T01:41:20;15.48;;;9.85;;
50495;SDS011;38806;51.554;5.704;2023-07-20T01:43:21;17.38;;;10.43;;
50495;SDS011;38806;51.554;5.704;2023-07-20T01:45:21;20.30;;;11.70;;
50495;SDS011;38806;51.554;5.704;2023-07-20T01:47:21;16.30;;;10.43;;
50495;SDS011;38806;51.554;5.704;2023-07-20T01:49:22;18.13;;;11.82;;
50495;SDS011;38806;51.554;5.704;2023-07-20T01:51:22;17.65;;;10.68;;
50495;SDS011;38806;51.554;5.704;2023-07-20T01:53:22;21.00;;;12.18;;
50495;SDS011;38806;51.554;5.704;2023-07-20T01:55:22;22.77;;;14.25;;
50495;SDS011;38806;51.554;5.704;2023-07-20T01:57:23;22.17;;;14.15;;
50495;SDS011;38806;51.554;5.704;2023-07-20T01:59:23;24.15;;;14.63;;
50495;SDS011;38806;51.554;5.704;2023-07-20T02:01:23;18.70;;;13.77;;
50495;SDS011;38806;51.554;5.704;2023-07-20T02:03:23;23.23;;;14.93;;
50495;SDS011;38806;51.554;5.704;2023-07-20T02:05:25;23.23;;;14.75;;
50495;SDS011;38806;51.554;5.704;2023-07-20T02:07:26;25.20;;;15.57;;
50495;SDS011;38806;51.554;5.704;2023-07-20T02:09:26;29.65;;;17.45;;
50495;SDS011;38806;51.554;5.704;2023-07-20T02:11:26;19.93;;;15.03;;
50495;SDS011;38806;51.554;5.704;2023-07-20T02:13:26;26.48;;;17.45;;
50495;SDS011;38806;51.554;5.704;2023-07-20T02:15:27;27.17;;;16.15;;
50495;SDS011;38806;51.554;5.704;2023-07-20T02:17:27;26.35;;;18.27;;
50495;SDS011;38806;51.554;5.704;2023-07-20T02:19:28;24.00;;;17.50;;
50495;SDS011;38806;51.554;5.704;2023-07-20T02:21:28;22.25;;;16.23;;
50495;SDS011;38806;51.554;5.704;2023-07-20T02:23:28;28.53;;;18.20;;
50495;SDS011;38806;51.554;5.704;2023-07-20T02:25:28;30.67;;;17.85;;
50495;SDS011;38806;51.554;5.704;2023-07-20T02:27:29;33.60;;;20.27;;
50495;SDS011;38806;51.554;5.704;2023-07-20T02:29:29;26.42;;;18.98;;
50495;SDS011;38806;51.554;5.704;2023-07-20T02:31:29;31.67;;;20.47;;
50495;SDS011;38806;51.554;5.704;2023-07-20T02:33:29;25.00;;;19.23;;
50495;SDS011;38806;51.554;5.704;2023-07-20T02:35:30;32.60;;;19.02;;
50495;SDS011;38806;51.554;5.704;2023-07-20T02:37:30;25.25;;;17.25;;
50495;SDS011;38806;51.554;5.704;2023-07-20T02:39:30;26.55;;;19.08;;
50495;SDS011;38806;51.554;5.704;2023-07-20T02:41:32;28.90;;;19.27;;
50495;SDS011;38806;51.554;5.704;2023-07-20T02:43:32;28.23;;;20.73;;
50495;SDS011;38806;51.554;5.704;2023-07-20T02:45:32;27.60;;;18.77;;
50495;SDS011;38806;51.554;5.704;2023-07-20T02:47:32;30.67;;;19.90;;
50495;SDS011;38806;51.554;5.704;2023-07-20T02:49:34;27.83;;;19.58;;
50495;SDS011;38806;51.554;5.704;2023-07-20T02:51:34;29.63;;;22.02;;
50495;SDS011;38806;51.554;5.704;2023-07-20T02:53:34;30.13;;;20.77;;
50495;SDS011;38806;51.554;5.704;2023-07-20T02:55:34;29.73;;;21.02;;
50495;SDS011;38806;51.554;5.704;2023-07-20T02:57:34;32.03;;;23.50;;
50495;SDS011;38806;51.554;5.704;2023-07-20T02:59:35;28.48;;;19.85;;
50495;SDS011;38806;51.554;5.704;2023-07-20T03:01:35;25.80;;;20.63;;
50495;SDS011;38806;51.554;5.704;2023-07-20T03:03:36;32.92;;;21.40;;
50495;SDS011;38806;51.554;5.704;2023-07-20T03:05:40;25.17;;;18.40;;
50495;SDS011;38806;51.554;5.704;2023-07-20T03:07:40;27.67;;;18.33;;
50495;SDS011;38806;51.554;5.704;2023-07-20T03:09:43;27.67;;;19.90;;
50495;SDS011;38806;51.554;5.704;2023-07-20T03:11:43;34.65;;;20.23;;
50495;SDS011;38806;51.554;5.704;2023-07-20T03:13:44;29.38;;;19.67;;
50495;SDS011;38806;51.554;5.704;2023-07-20T03:15:44;27.45;;;20.00;;
50495;SDS011;38806;51.554;5.704;2023-07-20T03:17:44;29.97;;;20.27;;
50495;SDS011;38806;51.554;5.704;2023-07-20T03:19:44;26.55;;;20.58;;
50495;SDS011;38806;51.554;5.704;2023-07-20T03:21:45;29.52;;;19.25;;
50495;SDS011;38806;51.554;5.704;2023-07-20T03:23:45;26.63;;;17.87;;
50495;SDS011;38806;51.554;5.704;2023-07-20T03:25:46;29.27;;;18.95;;
50495;SDS011;38806;51.554;5.704;2023-07-20T03:27:46;28.17;;;19.17;;
50495;SDS011;38806;51.554;5.704;2023-07-20T03:29:46;26.10;;;18.98;;
50495;SDS011;38806;51.554;5.704;2023-07-20T03:31:46;26.03;;;17.63;;
50495;SDS011;38806;51.554;5.704;2023-07-20T03:33:46;25.70;;;16.10;;
50495;SDS011;38806;51.554;5.704;2023-07-20T03:35:47;23.85;;;17.73;;
50495;SDS011;38806;51.554;5.704;2023-07-20T03:37:47;21.25;;;12.85;;
50495;SDS011;38806;51.554;5.704;2023-07-20T03:39:47;20.15;;;13.65;;
50495;SDS011;38806;51.554;5.704;2023-07-20T03:41:47;14.85;;;10.95;;
50495;SDS011;38806;51.554;5.704;2023-07-20T03:43:47;19.52;;;11.73;;
50495;SDS011;38806;51.554;5.704;2023-07-20T03:45:49;21.63;;;14.15;;
50495;SDS011;38806;51.554;5.704;2023-07-20T03:47:49;20.00;;;14.48;;
50495;SDS011;38806;51.554;5.704;2023-07-20T03:49:49;17.08;;;12.13;;
50495;SDS011;38806;51.554;5.704;2023-07-20T03:51:49;15.90;;;12.57;;
50495;SDS011;38806;51.554;5.704;2023-07-20T03:53:50;20.30;;;14.52;;
50495;SDS011;38806;51.554;5.704;2023-07-20T03:55:50;22.42;;;13.98;;
50495;SDS011;38806;51.554;5.704;2023-07-20T03:57:50;23.70;;;15.05;;
50495;SDS011;38806;51.554;5.704;2023-07-20T03:59:51;25.83;;;16.08;;
50495;SDS011;38806;51.554;5.704;2023-07-20T04:01:51;25.27;;;17.23;;
50495;SDS011;38806;51.554;5.704;2023-07-20T04:03:51;25.77;;;16.73;;
50495;SDS011;38806;51.554;5.704;2023-07-20T04:05:53;24.10;;;17.35;;
50495;SDS011;38806;51.554;5.704;2023-07-20T04:07:53;30.45;;;21.02;;
50495;SDS011;38806;51.554;5.704;2023-07-20T04:09:53;29.75;;;20.40;;
50495;SDS011;38806;51.554;5.704;2023-07-20T04:11:53;28.77;;;22.33;;
50495;SDS011;38806;51.554;5.704;2023-07-20T04:13:54;30.92;;;21.85;;
50495;SDS011;38806;51.554;5.704;2023-07-20T04:15:54;29.58;;;21.92;;
50495;SDS011;38806;51.554;5.704;2023-07-20T04:17:55;36.80;;;23.60;;
50495;SDS011;38806;51.554;5.704;2023-07-20T04:19:56;37.47;;;25.85;;
50495;SDS011;38806;51.554;5.704;2023-07-20T04:21:56;35.13;;;25.42;;
50495;SDS011;38806;51.554;5.704;2023-07-20T04:23:56;32.53;;;23.40;;
50495;SDS011;38806;51.554;5.704;2023-07-20T04:25:57;38.22;;;25.23;;
50495;SDS011;38806;51.554;5.704;2023-07-20T04:27:57;39.45;;;28.88;;
50495;SDS011;38806;51.554;5.704;2023-07-20T04:30:00;39.75;;;27.02;;
50495;SDS011;38806;51.554;5.704;2023-07-20T04:32:00;38.78;;;26.27;;
50495;SDS011;38806;51.554;5.704;2023-07-20T04:34:00;40.58;;;27.73;;
50495;SDS011;38806;51.554;5.704;2023-07-20T04:36:01;38.85;;;28.73;;
50495;SDS011;38806;51.554;5.704;2023-07-20T04:38:01;39.72;;;28.23;;
50495;SDS011;38806;51.554;5.704;2023-07-20T04:40:01;39.65;;;28.08;;
50495;SDS011;38806;51.554;5.704;2023-07-20T04:42:03;37.05;;;25.95;;
50495;SDS011;38806;51.554;5.704;2023-07-20T04:44:03;35.20;;;23.60;;
50495;SDS011;38806;51.554;5.704;2023-07-20T04:46:04;39.95;;;25.48;;
50495;SDS011;38806;51.554;5.704;2023-07-20T04:48:09;34.10;;;23.95;;
50495;SDS011;38806;51.554;5.704;2023-07-20T04:50:10;32.60;;;23.10;;
50495;SDS011;38806;51.554;5.704;2023-07-20T04:52:11;31.83;;;22.20;;
50495;SDS011;38806;51.554;5.704;2023-07-20T04:54:11;30.58;;;21.27;;
50495;SDS011;38806;51.554;5.704;2023-07-20T04:56:11;33.00;;;21.85;;
50495;SDS011;38806;51.554;5.704;2023-07-20T04:58:12;30.23;;;20.15;;
50495;SDS011;38806;51.554;5.704;2023-07-20T05:00:12;30.67;;;19.53;;
50495;SDS011;38806;51.554;5.704;2023-07-20T05:02:13;31.65;;;21.08;;
50495;SDS011;38806;51.554;5.704;2023-07-20T05:04:13;25.42;;;18.48;;
50495;SDS011;38806;51.554;5.704;2023-07-20T05:06:13;27.10;;;18.15;;
50495;SDS011;38806;51.554;5.704;2023-07-20T05:08:13;24.63;;;16.60;;
50495;SDS011;38806;51.554;5.704;2023-07-20T05:10:14;22.90;;;16.48;;
50495;SDS011;38806;51.554;5.704;2023-07-20T05:12:14;22.67;;;18.02;;
50495;SDS011;38806;51.554;5.704;2023-07-20T05:14:14;27.77;;;17.10;;
50495;SDS011;38806;51.554;5.704;2023-07-20T05:16:14;20.63;;;15.82;;
50495;SDS011;38806;51.554;5.704;2023-07-20T05:18:14;23.17;;;16.38;;
50495;SDS011;38806;51.554;5.704;2023-07-20T05:20:19;21.17;;;14.95;;
50495;SDS011;38806;51.554;5.704;2023-07-20T05:22:20;21.23;;;15.30;;
50495;SDS011;38806;51.554;5.704;2023-07-20T05:24:20;21.92;;;14.98;;
50495;SDS011;38806;51.554;5.704;2023-07-20T05:26:20;21.98;;;14.80;;
50495;SDS011;38806;51.554;5.704;2023-07-20T05:28:21;18.42;;;13.93;;
50495;SDS011;38806;51.554;5.704;2023-07-20T05:30:21;23.80;;;14.73;;
50495;SDS011;38806;51.554;5.704;2023-07-20T05:32:21;19.50;;;14.35;;
50495;SDS011;38806;51.554;5.704;2023-07-20T05:34:21;21.02;;;14.25;;
50495;SDS011;38806;51.554;5.704;2023-07-20T05:36:22;18.13;;;15.13;;
50495;SDS011;38806;51.554;5.704;2023-07-20T05:38:22;20.70;;;15.20;;
50495;SDS011;38806;51.554;5.704;2023-07-20T05:40:22;18.55;;;12.85;;
50495;SDS011;38806;51.554;5.704;2023-07-20T05:42:23;20.90;;;13.25;;
50495;SDS011;38806;51.554;5.704;2023-07-20T05:44:23;14.73;;;12.35;;
50495;SDS011;38806;51.554;5.704;2023-07-20T05:46:23;19.85;;;15.27;;
50495;SDS011;38806;51.554;5.704;2023-07-20T05:48:24;17.88;;;12.48;;
50495;SDS011;38806;51.554;5.704;2023-07-20T05:50:24;20.50;;;13.75;;
50495;SDS011;38806;51.554;5.704;2023-07-20T05:52:25;19.00;;;13.10;;
50495;SDS011;38806;51.554;5.704;2023-07-20T05:54:25;22.48;;;15.32;;
50495;SDS011;38806;51.554;5.704;2023-07-20T05:56:25;21.23;;;15.27;;
50495;SDS011;38806;51.554;5.704;2023-07-20T05:58:26;17.90;;;13.35;;
50495;SDS011;38806;51.554;5.704;2023-07-20T06:00:26;19.45;;;14.15;;
50495;SDS011;38806;51.554;5.704;2023-07-20T06:02:26;21.15;;;16.15;;
50495;SDS011;38806;51.554;5.704;2023-07-20T06:04:26;20.50;;;13.45;;
50495;SDS011;38806;51.554;5.704;2023-07-20T06:06:27;18.13;;;13.65;;
50495;SDS011;38806;51.554;5.704;2023-07-20T06:08:28;19.07;;;13.03;;
50495;SDS011;38806;51.554;5.704;2023-07-20T06:10:28;17.98;;;11.85;;
50495;SDS011;38806;51.554;5.704;2023-07-20T06:12:28;16.38;;;11.57;;
50495;SDS011;38806;51.554;5.704;2023-07-20T06:14:29;15.15;;;11.73;;
50495;SDS011;38806;51.554;5.704;2023-07-20T06:16:29;17.50;;;11.07;;
50495;SDS011;38806;51.554;5.704;2023-07-20T06:18:29;12.13;;;10.25;;
50495;SDS011;38806;51.554;5.704;2023-07-20T06:20:33;11.27;;;9.15;;
50495;SDS011;38806;51.554;5.704;2023-07-20T06:22:33;14.02;;;10.32;;
50495;SDS011;38806;51.554;5.704;2023-07-20T06:24:33;15.48;;;10.55;;
50495;SDS011;38806;51.554;5.704;2023-07-20T06:26:33;13.70;;;9.38;;
50495;SDS011;38806;51.554;5.704;2023-07-20T06:28:38;11.23;;;9.02;;
50495;SDS011;38806;51.554;5.704;2023-07-20T06:30:39;13.18;;;9.70;;
50495;SDS011;38806;51.554;5.704;2023-07-20T06:32:39;9.93;;;8.32;;
50495;SDS011;38806;51.554;5.704;2023-07-20T06:34:40;14.07;;;10.00;;
50495;SDS011;38806;51.554;5.704;2023-07-20T06:36:40;11.83;;;8.53;;
50495;SDS011;38806;51.554;5.704;2023-07-20T06:38:40;11.38;;;7.68;;
50495;SDS011;38806;51.554;5.704;2023-07-20T06:40:40;10.03;;;7.47;;
50495;SDS011;38806;51.554;5.704;2023-07-20T06:42:40;10.83;;;7.37;;
50495;SDS011;38806;51.554;5.704;2023-07-20T06:44:41;10.07;;;7.72;;
50495;SDS011;38806;51.554;5.704;2023-07-20T06:46:41;10.18;;;8.02;;
50495;SDS011;38806;51.554;5.704;2023-07-20T06:48:42;11.35;;;7.45;;
50495;SDS011;38806;51.554;5.704;2023-07-20T06:50:42;12.45;;;8.13;;
50495;SDS011;38806;51.554;5.704;2023-07-20T06:52:42;12.00;;;8.27;;
50495;SDS011;38806;51.554;5.704;2023-07-20T06:54:43;10.70;;;7.03;;
50495;SDS011;38806;51.554;5.704;2023-07-20T06:56:43;10.95;;;9.30;;
50495;SDS011;38806;51.554;5.704;2023-07-20T06:58:43;13.23;;;9.23;;
50495;SDS011;38806;51.554;5.704;2023-07-20T07:00:43;15.30;;;10.15;;
50495;SDS011;38806;51.554;5.704;2023-07-20T07:02:44;13.75;;;10.77;;
50495;SDS011;38806;51.554;5.704;2023-07-20T07:04:45;10.68;;;9.32;;
50495;SDS011;38806;51.554;5.704;2023-07-20T07:06:47;15.27;;;10.68;;
50495;SDS011;38806;51.554;5.704;2023-07-20T07:08:48;11.23;;;9.45;;
50495;SDS011;38806;51.554;5.704;2023-07-20T07:10:48;11.60;;;8.82;;
50495;SDS011;38806;51.554;5.704;2023-07-20T07:12:48;9.77;;;7.73;;
50495;SDS011;38806;51.554;5.704;2023-07-20T07:14:48;10.00;;;8.18;;
50495;SDS011;38806;51.554;5.704;2023-07-20T07:16:48;8.77;;;7.30;;
50495;SDS011;38806;51.554;5.704;2023-07-20T07:18:50;10.80;;;7.40;;
50495;SDS011;38806;51.554;5.704;2023-07-20T07:20:53;8.20;;;6.53;;
50495;SDS011;38806;51.554;5.704;2023-07-20T07:22:53;10.80;;;7.55;;
50495;SDS011;38806;51.554;5.704;2023-07-20T07:24:55;10.00;;;7.53;;
50495;SDS011;38806;51.554;5.704;2023-07-20T07:26:56;11.55;;;7.75;;
50495;SDS011;38806;51.554;5.704;2023-07-20T07:28:56;8.67;;;6.03;;
50495;SDS011;38806;51.554;5.704;2023-07-20T07:30:56;10.97;;;6.83;;
50495;SDS011;38806;51.554;5.704;2023-07-20T07:32:57;8.90;;;6.53;;
50495;SDS011;38806;51.554;5.704;2023-07-20T07:34:57;10.40;;;8.03;;
50495;SDS011;38806;51.554;5.704;2023-07-20T07:36:58;9.77;;;6.53;;
50495;SDS011;38806;51.554;5.704;2023-07-20T07:38:59;8.13;;;6.60;;
50495;SDS011;38806;51.554;5.704;2023-07-20T07:41:00;9.23;;;5.70;;
50495;SDS011;38806;51.554;5.704;2023-07-20T07:43:00;6.45;;;4.05;;
50495;SDS011;38806;51.554;5.704;2023-07-20T07:45:00;6.47;;;4.32;;
50495;SDS011;38806;51.554;5.704;2023-07-20T07:47:00;5.70;;;3.55;;
50495;SDS011;38806;51.554;5.704;2023-07-20T07:49:01;5.30;;;3.72;;
50495;SDS011;38806;51.554;5.704;2023-07-20T07:51:01;7.10;;;5.22;;
50495;SDS011;38806;51.554;5.704;2023-07-20T07:53:01;7.80;;;4.68;;
50495;SDS011;38806;51.554;5.704;2023-07-20T07:55:01;5.82;;;3.95;;
50495;SDS011;38806;51.554;5.704;2023-07-20T07:57:01;5.97;;;4.30;;
50495;SDS011;38806;51.554;5.704;2023-07-20T07:59:02;5.72;;;3.50;;
50495;SDS011;38806;51.554;5.704;2023-07-20T08:01:03;5.05;;;3.33;;
50495;SDS011;38806;51.554;5.704;2023-07-20T08:03:03;6.03;;;3.40;;
50495;SDS011;38806;51.554;5.704;2023-07-20T08:05:03;6.30;;;3.33;;
50495;SDS011;38806;51.554;5.704;2023-07-20T08:07:04;3.83;;;2.58;;
50495;SDS011;38806;51.554;5.704;2023-07-20T08:09:04;3.67;;;2.60;;
50495;SDS011;38806;51.554;5.704;2023-07-20T08:11:04;4.78;;;2.70;;
50495;SDS011;38806;51.554;5.704;2023-07-20T08:13:05;3.30;;;2.00;;
50495;SDS011;38806;51.554;5.704;2023-07-20T08:15:05;1.30;;;1.02;;
50495;SDS011;38806;51.554;5.704;2023-07-20T08:17:05;1.67;;;1.17;;
50495;SDS011;38806;51.554;5.704;2023-07-20T08:19:05;2.20;;;1.17;;
50495;SDS011;38806;51.554;5.704;2023-07-20T08:21:06;3.60;;;1.80;;
50495;SDS011;38806;51.554;5.704;2023-07-20T08:23:06;2.55;;;1.50;;
50495;SDS011;38806;51.554;5.704;2023-07-20T08:25:06;3.22;;;1.83;;
50495;SDS011;38806;51.554;5.704;2023-07-20T08:27:07;3.60;;;1.85;;
50495;SDS011;38806;51.554;5.704;2023-07-20T08:29:08;2.63;;;1.48;;
50495;SDS011;38806;51.554;5.704;2023-07-20T08:31:08;2.80;;;1.70;;
50495;SDS011;38806;51.554;5.704;2023-07-20T08:33:09;2.93;;;1.73;;
50495;SDS011;38806;51.554;5.704;2023-07-20T08:35:09;2.05;;;1.40;;
50495;SDS011;38806;51.554;5.704;2023-07-20T08:37:10;1.90;;;1.42;;
50495;SDS011;38806;51.554;5.704;2023-07-20T08:39:10;14.57;;;1.90;;
50495;SDS011;38806;51.554;5.704;2023-07-20T08:41:10;4.27;;;2.10;;
50495;SDS011;38806;51.554;5.704;2023-07-20T08:43:11;2.72;;;1.67;;
50495;SDS011;38806;51.554;5.704;2023-07-20T08:45:11;2.13;;;1.17;;
50495;SDS011;38806;51.554;5.704;2023-07-20T08:47:13;2.85;;;1.65;;
50495;SDS011;38806;51.554;5.704;2023-07-20T08:49:16;3.92;;;1.77;;
50495;SDS011;38806;51.554;5.704;2023-07-20T08:51:17;2.03;;;1.55;;
50495;SDS011;38806;51.554;5.704;2023-07-20T08:53:18;3.00;;;1.50;;
50495;SDS011;38806;51.554;5.704;2023-07-20T08:55:19;2.72;;;1.30;;
50495;SDS011;38806;51.554;5.704;2023-07-20T08:57:20;2.28;;;1.40;;
50495;SDS011;38806;51.554;5.704;2023-07-20T08:59:21;2.10;;;1.50;;
50495;SDS011;38806;51.554;5.704;2023-07-20T09:01:23;2.22;;;1.50;;
50495;SDS011;38806;51.554;5.704;2023-07-20T09:03:23;3.95;;;1.88;;
50495;SDS011;38806;51.554;5.704;2023-07-20T09:05:24;2.20;;;1.23;;
50495;SDS011;38806;51.554;5.704;2023-07-20T09:07:24;1.85;;;1.00;;
50495;SDS011;38806;51.554;5.704;2023-07-20T09:09:25;2.75;;;1.60;;
50495;SDS011;38806;51.554;5.704;2023-07-20T09:11:25;2.63;;;1.10;;
50495;SDS011;38806;51.554;5.704;2023-07-20T09:13:25;1.73;;;1.20;;
50495;SDS011;38806;51.554;5.704;2023-07-20T09:15:25;3.77;;;1.10;;
50495;SDS011;38806;51.554;5.704;2023-07-20T09:17:26;3.00;;;1.30;;
50495;SDS011;38806;51.554;5.704;2023-07-20T09:19:26;4.00;;;1.48;;
50495;SDS011;38806;51.554;5.704;2023-07-20T09:21:29;2.70;;;1.98;;
50495;SDS011;38806;51.554;5.704;2023-07-20T09:23:34;3.33;;;1.80;;
50495;SDS011;38806;51.554;5.704;2023-07-20T09:25:35;4.20;;;2.20;;
50495;SDS011;38806;51.554;5.704;2023-07-20T09:27:39;3.22;;;1.40;;
50495;SDS011;38806;51.554;5.704;2023-07-20T09:29:49;2.67;;;1.52;;
50495;SDS011;38806;51.554;5.704;2023-07-20T09:31:59;4.63;;;1.83;;
50495;SDS011;38806;51.554;5.704;2023-07-20T09:34:00;4.15;;;2.28;;
50495;SDS011;38806;51.554;5.704;2023-07-20T09:36:03;4.30;;;2.33;;
50495;SDS011;38806;51.554;5.704;2023-07-20T09:38:04;6.72;;;2.22;;
50495;SDS011;38806;51.554;5.704;2023-07-20T09:40:04;3.13;;;1.67;;
50495;SDS011;38806;51.554;5.704;2023-07-20T09:42:06;4.10;;;2.15;;
50495;SDS011;38806;51.554;5.704;2023-07-20T09:44:08;3.13;;;1.77;;
50495;SDS011;38806;51.554;5.704;2023-07-20T09:46:10;2.90;;;1.80;;
50495;SDS011;38806;51.554;5.704;2023-07-20T09:48:10;3.78;;;1.52;;
50495;SDS011;38806;51.554;5.704;2023-07-20T09:50:11;3.25;;;2.00;;
50495;SDS011;38806;51.554;5.704;2023-07-20T09:52:11;3.03;;;1.63;;
50495;SDS011;38806;51.554;5.704;2023-07-20T09:54:13;3.87;;;2.07;;
50495;SDS011;38806;51.554;5.704;2023-07-20T09:56:13;3.25;;;1.77;;
50495;SDS011;38806;51.554;5.704;2023-07-20T09:58:14;2.97;;;1.75;;
50495;SDS011;38806;51.554;5.704;2023-07-20T10:00:15;2.88;;;1.73;;
50495;SDS011;38806;51.554;5.704;2023-07-20T10:02:34;3.13;;;1.50;;
50495;SDS011;38806;51.554;5.704;2023-07-20T10:04:37;2.45;;;1.33;;
50495;SDS011;38806;51.554;5.704;2023-07-20T10:06:39;2.25;;;1.30;;
50495;SDS011;38806;51.554;5.704;2023-07-20T10:08:41;3.25;;;1.85;;
50495;SDS011;38806;51.554;5.704;2023-07-20T10:10:41;3.53;;;2.22;;
50495;SDS011;38806;51.554;5.704;2023-07-20T10:12:46;2.75;;;1.75;;
50495;SDS011;38806;51.554;5.704;2023-07-20T10:14:52;3.38;;;1.90;;
50495;SDS011;38806;51.554;5.704;2023-07-20T10:16:55;3.53;;;1.58;;
50495;SDS011;38806;51.554;5.704;2023-07-20T10:20:59;2.23;;;1.60;;
50495;SDS011;38806;51.554;5.704;2023-07-20T10:22:59;2.85;;;1.98;;
50495;SDS011;38806;51.554;5.704;2023-07-20T10:25:00;3.22;;;1.30;;
50495;SDS011;38806;51.554;5.704;2023-07-20T10:27:01;2.53;;;1.77;;
50495;SDS011;38806;51.554;5.704;2023-07-20T10:29:01;4.07;;;1.40;;
50495;SDS011;38806;51.554;5.704;2023-07-20T10:31:02;2.20;;;1.27;;
50495;SDS011;38806;51.554;5.704;2023-07-20T10:33:03;3.58;;;1.50;;
50495;SDS011;38806;51.554;5.704;2023-07-20T10:35:11;1.63;;;1.00;;
50495;SDS011;38806;51.554;5.704;2023-07-20T10:37:11;1.48;;;0.75;;
50495;SDS011;38806;51.554;5.704;2023-07-20T10:39:32;1.63;;;0.70;;
50495;SDS011;38806;51.554;5.704;2023-07-20T10:41:37;2.65;;;1.30;;
50495;SDS011;38806;51.554;5.704;2023-07-20T10:43:41;2.92;;;1.75;;
50495;SDS011;38806;51.554;5.704;2023-07-20T10:45:42;4.57;;;1.80;;
50495;SDS011;38806;51.554;5.704;2023-07-20T10:47:47;6.22;;;1.95;;
50495;SDS011;38806;51.554;5.704;2023-07-20T10:49:57;3.57;;;1.90;;
50495;SDS011;38806;51.554;5.704;2023-07-20T10:51:58;2.38;;;1.42;;
50495;SDS011;38806;51.554;5.704;2023-07-20T10:54:03;2.05;;;1.30;;
50495;SDS011;38806;51.554;5.704;2023-07-20T10:56:07;1.63;;;1.00;;
50495;SDS011;38806;51.554;5.704;2023-07-20T10:58:09;3.03;;;1.63;;
50495;SDS011;38806;51.554;5.704;2023-07-20T11:00:13;3.58;;;1.23;;
50495;SDS011;38806;51.554;5.704;2023-07-20T11:02:17;2.38;;;1.80;;
50495;SDS011;38806;51.554;5.704;2023-07-20T11:04:17;2.75;;;1.20;;
50495;SDS011;38806;51.554;5.704;2023-07-20T11:11:20;2.47;;;1.40;;
50495;SDS011;38806;51.554;5.704;2023-07-20T11:13:19;4.70;;;1.48;;
50495;SDS011;38806;51.554;5.704;2023-07-20T11:15:19;2.28;;;1.35;;
50495;SDS011;38806;51.554;5.704;2023-07-20T11:17:19;4.63;;;1.53;;
50495;SDS011;38806;51.554;5.704;2023-07-20T11:19:25;3.17;;;1.23;;
50495;SDS011;38806;51.554;5.704;2023-07-20T11:21:26;1.55;;;0.85;;
50495;SDS011;38806;51.554;5.704;2023-07-20T11:23:26;2.65;;;1.33;;
50495;SDS011;38806;51.554;5.704;2023-07-20T11:25:35;2.55;;;1.20;;
50495;SDS011;38806;51.554;5.704;2023-07-20T11:27:43;4.07;;;1.02;;
50495;SDS011;38806;51.554;5.704;2023-07-20T11:29:45;4.13;;;1.70;;
50495;SDS011;38806;51.554;5.704;2023-07-20T11:31:46;2.03;;;1.40;;
50495;SDS011;38806;51.554;5.704;2023-07-20T11:33:46;1.73;;;1.15;;
50495;SDS011;38806;51.554;5.704;2023-07-20T11:35:48;3.78;;;1.30;;
50495;SDS011;38806;51.554;5.704;2023-07-20T11:37:48;3.67;;;1.40;;
50495;SDS011;38806;51.554;5.704;2023-07-20T11:39:48;4.22;;;2.15;;
50495;SDS011;38806;51.554;5.704;2023-07-20T11:41:49;3.30;;;1.07;;
50495;SDS011;38806;51.554;5.704;2023-07-20T11:43:49;4.70;;;1.38;;
50495;SDS011;38806;51.554;5.704;2023-07-20T11:45:50;3.10;;;1.00;;
50495;SDS011;38806;51.554;5.704;2023-07-20T11:47:50;2.73;;;1.30;;
50495;SDS011;38806;51.554;5.704;2023-07-20T11:49:50;1.55;;;0.88;;
50495;SDS011;38806;51.554;5.704;2023-07-20T11:51:54;1.35;;;0.80;;
50495;SDS011;38806;51.554;5.704;2023-07-20T11:53:55;1.38;;;0.80;;
50495;SDS011;38806;51.554;5.704;2023-07-20T11:55:55;1.25;;;0.70;;
50495;SDS011;38806;51.554;5.704;2023-07-20T12:00:03;2.25;;;1.02;;
50495;SDS011;38806;51.554;5.704;2023-07-20T12:02:11;4.40;;;0.80;;
50495;SDS011;38806;51.554;5.704;2023-07-20T12:04:11;2.83;;;0.70;;
50495;SDS011;38806;51.554;5.704;2023-07-20T12:06:12;2.13;;;0.90;;
50495;SDS011;38806;51.554;5.704;2023-07-20T12:08:13;1.23;;;0.60;;
50495;SDS011;38806;51.554;5.704;2023-07-20T12:10:14;5.50;;;1.20;;
50495;SDS011;38806;51.554;5.704;2023-07-20T12:12:14;2.33;;;0.70;;
50495;SDS011;38806;51.554;5.704;2023-07-20T12:14:14;2.47;;;1.23;;